Time;durP1;ratioP1;P1;durP2;ratioP2;P2;SDS_P1;SDS_P2;PMS_P1;PMS_P2;Temp;Humidity;BMP_temperature;BMP_pressure;BME280_temperature;BME280_humidity;BME280_pressure;Samples;Min_cycle;Max_cycle;Signal;HPM_P1;HPM_P2
2023/06/09 00:00:00;;;;;;;7.33;6.67;;;21.50;1.00;;;;;;4964253;28;20515;-77
2023/06/09 00:02:27;;;;;;;6.93;6.20;;;21.40;1.00;;;;;;4965173;28;20484;-78
2023/06/09 00:04:56;;;;;;;7.17;6.40;;;21.40;1.00;;;;;;4966451;28;20495;-79
2023/06/09 00:07:23;;;;;;;7.13;6.50;;;21.50;1.00;;;;;;4961652;28;20612;-77
2023/06/09 00:09:50;;;;;;;6.87;6.27;;;21.40;1.00;;;;;;4963885;28;20866;-77
2023/06/09 00:12:17;;;;;;;7.10;6.33;;;21.50;1.00;;;;;;4962129;28;20487;-77
2023/06/09 00:14:45;;;;;;;7.03;6.43;;;21.40;1.00;;;;;;4962699;28;20508;-77
2023/06/09 00:17:13;;;;;;;7.40;6.80;;;21.30;1.00;;;;;;4962214;28;20550;-77
2023/06/09 00:19:43;;;;;;;6.97;6.40;;;21.30;1.00;;;;;;4961595;28;20468;-76
2023/06/09 00:22:17;;;;;;;7.10;6.50;;;21.20;1.00;;;;;;4961404;28;20475;-76
2023/06/09 00:24:46;;;;;;;6.67;6.07;;;21.20;1.00;;;;;;4960149;28;20834;-77
2023/06/09 00:27:14;;;;;;;6.57;6.07;;;21.10;1.00;;;;;;4962976;28;20485;-78
2023/06/09 00:29:40;;;;;;;6.03;5.53;;;21.10;1.00;;;;;;4950136;28;20432;-78
2023/06/09 00:32:11;;;;;;;6.53;5.90;;;21.00;1.00;;;;;;4962294;28;20489;-79
2023/06/09 00:34:38;;;;;;;6.50;5.90;;;21.00;1.00;;;;;;4962372;28;20566;-78
2023/06/09 00:37:06;;;;;;;7.60;6.90;;;21.00;1.00;;;;;;4958742;28;20967;-78
2023/06/09 00:39:33;;;;;;;6.47;5.87;;;20.90;1.00;;;;;;4963340;28;20567;-78
2023/06/09 00:41:59;;;;;;;9.87;6.93;;;20.90;1.00;;;;;;4963639;28;20509;-78
2023/06/09 00:44:29;;;;;;;8.40;7.13;;;20.80;1.00;;;;;;4963289;28;20466;-78
2023/06/09 00:46:57;;;;;;;8.97;6.70;;;20.80;1.00;;;;;;4961499;28;20580;-79
2023/06/09 00:49:28;;;;;;;6.10;5.60;;;20.80;1.00;;;;;;4962303;28;20653;-78
2023/06/09 00:51:55;;;;;;;6.63;6.07;;;20.80;1.00;;;;;;4961236;28;20474;-78
2023/06/09 00:54:22;;;;;;;6.37;5.87;;;20.70;1.00;;;;;;4961128;28;20555;-78
2023/06/09 00:56:50;;;;;;;7.10;6.50;;;20.70;1.00;;;;;;4961586;28;20549;-77
2023/06/09 00:59:17;;;;;;;7.77;6.33;;;20.70;1.00;;;;;;4965211;28;20639;-77
2023/06/09 01:01:53;;;;;;;6.70;6.10;;;20.70;1.00;;;;;;4961621;28;20468;-81
2023/06/09 01:04:20;;;;;;;8.73;6.50;;;20.60;1.00;;;;;;4962648;28;20658;-81
2023/06/09 01:07:00;;;;;;;6.67;6.10;;;20.60;1.00;;;;;;4967867;28;20468;-82
2023/06/09 01:09:34;;;;;;;8.80;7.30;;;20.50;1.00;;;;;;4949633;28;21280;-81
2023/06/09 01:12:10;;;;;;;6.23;5.70;;;20.50;1.00;;;;;;4960805;28;21227;-82
2023/06/09 01:14:49;;;;;;;6.33;5.83;;;20.50;1.00;;;;;;4963745;28;20524;-81
2023/06/09 01:17:19;;;;;;;6.27;5.67;;;20.50;1.00;;;;;;4966780;28;20559;-83
2023/06/09 01:19:48;;;;;;;8.30;7.50;;;20.40;1.00;;;;;;4965272;28;22474;-82
2023/06/09 01:22:28;;;;;;;6.00;5.50;;;20.40;1.00;;;;;;4963161;28;20535;-82
2023/06/09 01:25:06;;;;;;;6.87;6.27;;;20.30;1.00;;;;;;4963762;28;20447;-83
2023/06/09 01:27:39;;;;;;;8.20;5.73;;;20.30;1.00;;;;;;4962241;28;20474;-82
2023/06/09 01:30:11;;;;;;;9.50;6.33;;;20.20;1.00;;;;;;4966128;28;20460;-82
2023/06/09 01:32:42;;;;;;;6.93;6.23;;;20.20;1.00;;;;;;4963446;28;20472;-82
2023/06/09 01:35:10;;;;;;;6.10;5.60;;;20.20;1.00;;;;;;4961919;28;20462;-82
2023/06/09 01:37:37;;;;;;;6.93;6.23;;;20.10;1.00;;;;;;4963348;28;20439;-83
2023/06/09 01:40:08;;;;;;;6.60;6.00;;;20.00;1.00;;;;;;4963452;28;20468;-82
2023/06/09 01:42:36;;;;;;;6.93;6.20;;;20.00;1.00;;;;;;4961784;28;20486;-83
2023/06/09 01:45:04;;;;;;;6.90;6.20;;;20.00;1.00;;;;;;4962852;28;20491;-82
2023/06/09 01:47:31;;;;;;;6.80;6.20;;;19.90;1.00;;;;;;4963842;28;21917;-82
2023/06/09 01:50:05;;;;;;;6.87;6.33;;;19.90;1.00;;;;;;4964933;28;20455;-83
2023/06/09 01:52:39;;;;;;;7.00;6.30;;;19.80;1.00;;;;;;4963803;28;20497;-82
2023/06/09 01:55:13;;;;;;;7.57;7.07;;;19.70;1.00;;;;;;4962215;28;20554;-82
2023/06/09 01:57:50;;;;;;;7.60;7.07;;;19.70;1.00;;;;;;4962202;28;20487;-82
2023/06/09 02:00:21;;;;;;;8.00;7.30;;;19.60;1.00;;;;;;4961441;28;21585;-82
2023/06/09 02:02:52;;;;;;;9.20;8.30;;;19.60;1.00;;;;;;4961561;28;21568;-81
2023/06/09 02:05:20;;;;;;;9.40;8.27;;;19.60;1.00;;;;;;4962500;28;21090;-82
2023/06/09 02:07:49;;;;;;;9.17;8.27;;;19.50;1.00;;;;;;4961758;28;20565;-81
2023/06/09 02:10:16;;;;;;;9.53;8.73;;;19.50;1.00;;;;;;4961710;28;20472;-81
2023/06/09 02:12:46;;;;;;;9.40;8.43;;;19.50;1.00;;;;;;4965018;28;20551;-81
2023/06/09 02:15:13;;;;;;;11.03;8.97;;;19.40;1.00;;;;;;4959344;28;21052;-81
2023/06/09 02:17:40;;;;;;;8.93;8.13;;;19.40;1.00;;;;;;4963135;28;20477;-81
2023/06/09 02:20:09;;;;;;;9.57;8.57;;;19.30;1.00;;;;;;4960030;28;20901;-81
2023/06/09 02:22:36;;;;;;;10.80;8.83;;;19.30;1.00;;;;;;4960911;28;20520;-81
2023/06/09 02:25:07;;;;;;;9.90;8.93;;;19.20;1.00;;;;;;4963770;28;20446;-82
2023/06/09 02:27:37;;;;;;;14.23;10.67;;;19.10;1.00;;;;;;4962196;28;20445;-81
2023/06/09 02:30:07;;;;;;;10.23;8.97;;;19.10;1.00;;;;;;4965946;28;20530;-81
2023/06/09 02:32:37;;;;;;;12.33;10.20;;;19.10;1.00;;;;;;4959193;28;20506;-81
2023/06/09 02:35:06;;;;;;;10.40;9.60;;;19.10;1.00;;;;;;4957914;28;20449;-82
2023/06/09 02:37:35;;;;;;;12.30;10.53;;;19.00;1.00;;;;;;4959945;28;20556;-81
2023/06/09 02:40:02;;;;;;;10.27;9.30;;;19.00;1.00;;;;;;4962604;28;20478;-81
2023/06/09 02:42:30;;;;;;;9.83;8.97;;;19.00;1.00;;;;;;4951583;28;20482;-81
2023/06/09 02:45:00;;;;;;;11.70;10.70;;;18.90;1.00;;;;;;4955522;28;20485;-81
2023/06/09 02:47:31;;;;;;;9.50;8.70;;;18.90;1.00;;;;;;4957750;28;20462;-81
2023/06/09 02:49:59;;;;;;;11.13;10.03;;;18.90;1.00;;;;;;4965904;28;20490;-81
2023/06/09 02:52:28;;;;;;;9.90;9.00;;;18.80;1.00;;;;;;4962171;28;20638;-81
2023/06/09 02:54:55;;;;;;;10.40;9.40;;;18.80;1.00;;;;;;4961772;28;20456;-81
2023/06/09 02:57:22;;;;;;;12.80;10.33;;;18.80;1.00;;;;;;4962969;28;20529;-82
2023/06/09 02:59:51;;;;;;;11.47;10.20;;;18.80;1.00;;;;;;4963999;28;20454;-81
2023/06/09 03:02:18;;;;;;;11.73;9.60;;;18.80;1.00;;;;;;4963657;28;20445;-81
2023/06/09 03:04:54;;;;;;;10.23;9.23;;;18.70;1.00;;;;;;4960617;28;20480;-82
2023/06/09 03:07:21;;;;;;;9.93;9.03;;;18.80;1.00;;;;;;4968910;28;20486;-79
2023/06/09 03:09:54;;;;;;;11.43;9.83;;;18.80;1.00;;;;;;4964903;28;20426;-82
2023/06/09 03:12:27;;;;;;;10.23;9.40;;;18.80;1.00;;;;;;4968382;28;20483;-80
2023/06/09 03:14:54;;;;;;;10.77;9.70;;;18.80;1.00;;;;;;4969010;28;21071;-80
2023/06/09 03:17:25;;;;;;;12.47;9.20;;;18.80;1.00;;;;;;4965830;28;20509;-81
2023/06/09 03:19:53;;;;;;;10.83;9.80;;;18.80;1.00;;;;;;4965386;28;20513;-81
2023/06/09 03:22:20;;;;;;;11.27;10.20;;;18.80;1.00;;;;;;4964420;28;20474;-81
2023/06/09 03:24:48;;;;;;;14.23;10.07;;;18.80;1.00;;;;;;4961836;28;20601;-82
2023/06/09 03:27:15;;;;;;;13.30;10.60;;;18.80;1.00;;;;;;4956779;28;20506;-82
2023/06/09 03:29:42;;;;;;;14.50;10.30;;;18.80;1.00;;;;;;4964526;28;20568;-81
2023/06/09 03:32:09;;;;;;;14.47;11.87;;;18.70;1.00;;;;;;4970499;28;20473;-80
2023/06/09 03:34:37;;;;;;;11.97;10.77;;;18.70;1.00;;;;;;4958160;28;20540;-80
2023/06/09 03:37:14;;;;;;;18.83;17.13;;;18.60;1.00;;;;;;4960964;28;20473;-81
2023/06/09 03:39:43;;;;;;;14.70;9.90;;;18.70;1.00;;;;;;4966527;28;20488;-82
2023/06/09 03:42:10;;;;;;;18.23;11.73;;;18.70;1.00;;;;;;4969886;28;20487;-80
2023/06/09 03:44:37;;;;;;;18.03;10.57;;;18.70;1.00;;;;;;4970623;28;21330;-80
2023/06/09 03:47:06;;;;;;;26.60;12.90;;;18.60;1.00;;;;;;4969113;28;20460;-80
2023/06/09 03:49:33;;;;;;;43.63;15.20;;;18.60;1.00;;;;;;4967417;28;20488;-81
2023/06/09 03:52:00;;;;;;;14.57;11.00;;;18.60;1.00;;;;;;4970148;28;20464;-81
2023/06/09 03:54:31;;;;;;;15.30;12.53;;;18.60;1.00;;;;;;4970156;28;20489;-79
2023/06/09 03:57:03;;;;;;;15.53;12.57;;;18.60;1.00;;;;;;4963397;28;20546;-82
2023/06/09 03:59:30;;;;;;;12.57;9.87;;;18.60;1.00;;;;;;4967790;28;20529;-81
2023/06/09 04:01:57;;;;;;;13.33;11.10;;;18.60;1.00;;;;;;4970966;28;20545;-81
2023/06/09 04:04:24;;;;;;;13.43;10.90;;;18.60;1.00;;;;;;4964890;28;20456;-81
2023/06/09 04:06:51;;;;;;;12.13;10.70;;;18.60;1.00;;;;;;4968353;28;20516;-81
2023/06/09 04:09:21;;;;;;;11.43;10.33;;;18.60;1.00;;;;;;4973232;28;20474;-82
2023/06/09 04:11:52;;;;;;;12.37;10.13;;;18.70;1.00;;;;;;4965202;28;20990;-77
2023/06/09 04:14:19;;;;;;;11.57;10.60;;;18.70;1.00;;;;;;4964015;28;20501;-78
2023/06/09 04:16:46;;;;;;;10.70;9.60;;;18.70;1.00;;;;;;4967263;28;20480;-77
2023/06/09 04:19:13;;;;;;;11.80;10.30;;;18.70;1.00;;;;;;4964117;28;22282;-77
2023/06/09 04:21:42;;;;;;;12.40;10.47;;;18.70;1.00;;;;;;4965690;28;20539;-77
2023/06/09 04:24:10;;;;;;;10.80;9.67;;;18.70;1.00;;;;;;4963938;28;20605;-77
2023/06/09 04:26:37;;;;;;;10.30;9.10;;;18.80;1.00;;;;;;4966703;28;20501;-78
2023/06/09 04:29:11;;;;;;;10.67;9.60;;;18.80;1.00;;;;;;4964285;28;20422;-77
2023/06/09 04:31:42;;;;;;;13.53;10.20;;;18.80;1.00;;;;;;4966823;28;20459;-77
2023/06/09 04:34:15;;;;;;;12.10;10.07;;;18.90;1.00;;;;;;4962482;28;20475;-78
2023/06/09 04:36:44;;;;;;;12.53;11.00;;;18.90;1.00;;;;;;4946543;28;20924;-78
2023/06/09 04:39:12;;;;;;;18.20;11.20;;;19.00;1.00;;;;;;4961394;28;20864;-79
2023/06/09 04:41:42;;;;;;;11.53;10.43;;;19.10;1.00;;;;;;4960950;28;20509;-78
2023/06/09 04:44:13;;;;;;;15.13;11.73;;;19.20;1.00;;;;;;4962883;28;20498;-78
2023/06/09 04:46:41;;;;;;;17.13;9.43;;;19.20;1.00;;;;;;4962292;28;20494;-78
2023/06/09 04:49:09;;;;;;;49.87;28.83;;;19.30;1.00;;;;;;4960512;28;20484;-76
2023/06/09 04:51:41;;;;;;;12.43;10.87;;;19.30;1.00;;;;;;4964378;28;20491;-77
2023/06/09 04:54:13;;;;;;;12.10;10.83;;;19.40;1.00;;;;;;4964827;28;21034;-77
2023/06/09 04:56:43;;;;;;;16.77;10.70;;;19.40;1.00;;;;;;4961726;28;20901;-76
2023/06/09 04:59:14;;;;;;;9.70;8.73;;;19.50;1.00;;;;;;4951506;28;20962;-77
2023/06/09 05:01:41;;;;;;;13.23;8.77;;;19.50;1.00;;;;;;4958721;28;20907;-76
2023/06/09 05:04:08;;;;;;;12.23;10.63;;;19.60;1.00;;;;;;4963880;28;20460;-75
2023/06/09 05:06:37;;;;;;;9.70;8.70;;;19.70;1.00;;;;;;4961584;28;20465;-76
2023/06/09 05:09:07;;;;;;;9.77;8.87;;;19.70;1.00;;;;;;4963657;28;20512;-77
2023/06/09 05:11:34;;;;;;;9.43;8.43;;;19.80;1.00;;;;;;4967421;28;20940;-77
2023/06/09 05:14:01;;;;;;;10.07;8.40;;;19.90;1.00;;;;;;4963575;28;20471;-77
2023/06/09 05:16:33;;;;;;;10.80;8.13;;;19.90;1.00;;;;;;4963306;28;20475;-76
2023/06/09 05:19:00;;;;;;;8.30;7.60;;;20.10;1.00;;;;;;4944281;28;20902;-77
2023/06/09 05:21:28;;;;;;;10.77;8.07;;;20.10;1.00;;;;;;4962693;28;20995;-77
2023/06/09 05:23:55;;;;;;;13.13;8.87;;;20.30;1.00;;;;;;4963677;28;20506;-78
2023/06/09 05:26:22;;;;;;;11.60;7.67;;;20.40;1.00;;;;;;4963840;28;20469;-77
2023/06/09 05:28:49;;;;;;;9.90;8.10;;;20.40;1.00;;;;;;4960820;28;21101;-77
2023/06/09 05:31:17;;;;;;;10.80;8.80;;;20.60;1.00;;;;;;4969034;28;20567;-77
2023/06/09 05:33:48;;;;;;;11.33;9.33;;;20.70;1.00;;;;;;4964298;28;20487;-77
2023/06/09 05:36:15;;;;;;;8.37;6.30;;;20.70;1.00;;;;;;4961643;28;20440;-79
2023/06/09 05:38:43;;;;;;;8.03;6.17;;;20.80;1.00;;;;;;4960809;28;20482;-80
2023/06/09 05:41:11;;;;;;;9.67;7.43;;;21.00;1.00;;;;;;4959886;28;20476;-77
2023/06/09 05:43:38;;;;;;;7.40;5.93;;;21.10;1.00;;;;;;4964614;28;20532;-78
2023/06/09 05:46:05;;;;;;;7.10;6.00;;;21.20;1.00;;;;;;4961126;28;20565;-78
2023/06/09 05:48:36;;;;;;;7.77;6.37;;;21.40;1.00;;;;;;4944183;28;20983;-79
2023/06/09 05:51:07;;;;;;;6.47;5.47;;;21.40;1.00;;;;;;4955258;28;20573;-78
2023/06/09 05:53:36;;;;;;;12.73;6.40;;;21.50;1.00;;;;;;4966000;28;20592;-83
2023/06/09 05:56:05;;;;;;;9.80;6.00;;;21.50;1.00;;;;;;4972336;28;20474;-82
2023/06/09 05:58:35;;;;;;;10.00;6.20;;;21.60;1.00;;;;;;4971019;28;20437;-83
2023/06/09 06:01:02;;;;;;;10.60;5.60;;;21.50;1.00;;;;;;4967436;28;20938;-81
2023/06/09 06:03:34;;;;;;;9.20;6.63;;;21.60;1.00;;;;;;4946863;28;20466;-79
2023/06/09 06:06:01;;;;;;;8.63;5.77;;;21.70;1.00;;;;;;4950876;28;20466;-80
2023/06/09 06:08:30;;;;;;;5.10;4.60;;;21.80;1.00;;;;;;4964476;28;20479;-81
2023/06/09 06:10:57;;;;;;;6.80;5.70;;;21.80;1.00;;;;;;4965243;28;20556;-81
2023/06/09 06:13:26;;;;;;;7.53;4.50;;;21.90;1.00;;;;;;4969407;28;20482;-83
2023/06/09 06:15:53;;;;;;;6.67;5.17;;;22.10;1.00;;;;;;4970137;28;20477;-81
2023/06/09 06:18:21;;;;;;;5.77;5.17;;;22.30;1.00;;;;;;4964734;28;20450;-80
2023/06/09 06:20:52;;;;;;;6.33;4.33;;;22.50;1.00;;;;;;4970109;28;20553;-82
2023/06/09 06:23:54;;;;;;;;;;;;;;;;;;;;;
2023/06/09 06:26:23;;;;;;;5.60;4.47;;;22.50;1.00;;;;;;4970863;28;51396;-79
2023/06/09 06:28:50;;;;;;;6.73;6.10;;;22.40;1.00;;;;;;4941552;28;20471;-80
2023/06/09 06:31:18;;;;;;;8.50;5.30;;;22.30;1.00;;;;;;4959929;28;20476;-80
2023/06/09 06:33:45;;;;;;;7.93;5.40;;;22.40;1.00;;;;;;4953513;28;20463;-79
2023/06/09 06:36:14;;;;;;;7.23;5.40;;;22.50;1.00;;;;;;4968980;28;20498;-79
2023/06/09 06:38:42;;;;;;;5.40;4.17;;;22.60;1.00;;;;;;4964429;28;20472;-79
2023/06/09 06:41:09;;;;;;;8.50;5.13;;;22.70;1.00;;;;;;4968165;28;20490;-81
2023/06/09 06:43:40;;;;;;;8.10;6.03;;;22.80;1.00;;;;;;4968315;28;20471;-81
2023/06/09 06:46:07;;;;;;;6.00;5.40;;;23.00;1.00;;;;;;4966799;28;20436;-82
2023/06/09 06:48:35;;;;;;;4.87;4.30;;;23.10;1.00;;;;;;4967445;28;20468;-78
2023/06/09 06:51:09;;;;;;;5.30;4.80;;;23.20;1.00;;;;;;4966883;28;20460;-80
2023/06/09 06:53:43;;;;;;;6.03;4.63;;;23.20;1.00;;;;;;4934224;28;20537;-80
2023/06/09 06:56:17;;;;;;;5.03;4.30;;;23.30;1.00;;;;;;4969592;28;20469;-79
2023/06/09 06:58:50;;;;;;;5.33;4.73;;;23.40;1.00;;;;;;4970893;28;20482;-80
2023/06/09 07:01:24;;;;;;;5.00;4.47;;;23.40;1.00;;;;;;4958905;28;20620;-80
2023/06/09 07:03:53;;;;;;;6.60;4.63;;;23.50;1.00;;;;;;4962638;28;20982;-79
2023/06/09 07:06:20;;;;;;;4.23;3.90;;;23.60;1.00;;;;;;4974215;28;20557;-82
2023/06/09 07:08:48;;;;;;;4.73;4.10;;;23.60;1.00;;;;;;4971472;28;20464;-83
2023/06/09 07:11:17;;;;;;;6.77;5.80;;;23.60;1.00;;;;;;4970411;28;20481;-81
2023/06/09 07:13:58;;;;;;;9.50;5.00;;;23.70;1.00;;;;;;4963150;28;20472;-82
2023/06/09 07:16:31;;;;;;;6.80;5.27;;;23.80;1.00;;;;;;4962694;28;20601;-82
2023/06/09 07:18:59;;;;;;;4.93;4.43;;;24.00;1.00;;;;;;4970248;28;20568;-82
2023/06/09 07:21:28;;;;;;;4.60;4.10;;;24.20;1.00;;;;;;4950915;28;20497;-81
2023/06/09 07:23:58;;;;;;;5.30;4.80;;;24.30;1.00;;;;;;4972700;28;20452;-80
2023/06/09 07:26:27;;;;;;;6.03;4.33;;;24.60;1.00;;;;;;4952855;28;20450;-82
2023/06/09 07:28:54;;;;;;;8.23;3.47;;;24.70;1.00;;;;;;4970687;28;20409;-82
2023/06/09 07:31:25;;;;;;;5.80;4.23;;;24.80;1.00;;;;;;4970945;28;20471;-82
2023/06/09 07:33:57;;;;;;;5.60;5.07;;;25.00;1.00;;;;;;4970950;28;20436;-81
2023/06/09 07:36:29;;;;;;;5.80;4.87;;;25.10;1.00;;;;;;4968232;28;20563;-81
2023/06/09 07:39:03;;;;;;;5.37;3.90;;;25.20;1.00;;;;;;4965087;28;20484;-81
2023/06/09 07:41:32;;;;;;;10.93;5.93;;;25.30;1.00;;;;;;4969380;28;20586;-82
2023/06/09 07:44:01;;;;;;;5.50;4.93;;;25.40;1.00;;;;;;4974464;28;20435;-80
2023/06/09 07:46:45;;;;;;;4.23;3.93;;;25.60;1.00;;;;;;4959892;28;20589;-79
2023/06/09 07:49:14;;;;;;;5.13;4.67;;;25.80;1.00;;;;;;4975702;28;20422;-79
2023/06/09 07:51:49;;;;;;;5.03;4.50;;;26.10;1.00;;;;;;4964704;28;20985;-80
2023/06/09 07:54:18;;;;;;;4.60;4.13;;;26.20;1.00;;;;;;4971414;28;20891;-82
2023/06/09 07:56:50;;;;;;;7.70;5.30;;;26.30;1.00;;;;;;4980340;28;20522;-79
2023/06/09 07:59:20;;;;;;;6.20;4.93;;;26.50;1.00;;;;;;4977170;28;20451;-79
2023/06/09 08:01:48;;;;;;;5.63;4.10;;;26.70;1.00;;;;;;4955423;28;20655;-79
2023/06/09 08:04:15;;;;;;;4.60;4.20;;;27.00;1.00;;;;;;4970182;28;20463;-79
2023/06/09 08:06:44;;;;;;;8.00;5.77;;;27.30;1.00;;;;;;4973576;28;20454;-80
2023/06/09 08:09:17;;;;;;;4.57;4.17;;;27.50;1.00;;;;;;4969843;28;20482;-80
2023/06/09 08:11:44;;;;;;;7.53;4.30;;;27.70;1.00;;;;;;4971551;28;20480;-80
2023/06/09 08:14:13;;;;;;;5.80;4.50;;;27.80;1.00;;;;;;4970765;28;20554;-82
2023/06/09 08:16:40;;;;;;;5.83;4.97;;;27.90;1.00;;;;;;4974702;28;20501;-80
2023/06/09 08:19:08;;;;;;;5.93;5.33;;;27.70;1.00;;;;;;4974999;28;20969;-80
2023/06/09 08:21:43;;;;;;;8.00;5.20;;;27.60;1.00;;;;;;4973049;28;20490;-79
2023/06/09 08:24:12;;;;;;;9.07;4.60;;;27.50;1.00;;;;;;4971662;28;20551;-83
2023/06/09 08:26:52;;;;;;;7.93;6.17;;;27.50;1.00;;;;;;4975840;28;20436;-81
2023/06/09 08:29:24;;;;;;;4.10;3.80;;;27.40;1.00;;;;;;4961759;28;20539;-82
2023/06/09 08:32:00;;;;;;;5.47;4.90;;;27.30;1.00;;;;;;4971556;28;20998;-83
2023/06/09 08:34:27;;;;;;;7.73;5.10;;;27.30;1.00;;;;;;4965313;28;20495;-80
2023/06/09 08:40:00;;;;;;;14.30;6.90;;;27.60;1.00;;;;;;4959380;28;20446;-84
2023/06/09 08:43:11;;;;;;;5.83;4.30;;;27.80;1.00;;;;;;4935790;28;20514;-83
2023/06/09 08:45:56;;;;;;;6.60;5.23;;;27.90;1.00;;;;;;4959505;28;20454;-83
2023/06/09 08:48:40;;;;;;;6.70;5.10;;;28.10;1.00;;;;;;4967966;28;21353;-84
2023/06/09 08:51:09;;;;;;;6.07;4.90;;;28.10;1.00;;;;;;4955835;28;20493;-81
2023/06/09 08:53:37;;;;;;;5.90;4.40;;;28.00;1.00;;;;;;4968954;28;20588;-79
2023/06/09 08:56:07;;;;;;;8.30;4.90;;;28.00;1.00;;;;;;4961374;28;20840;-82
2023/06/09 08:58:38;;;;;;;10.37;6.23;;;28.00;1.00;;;;;;4970932;28;20506;-83
2023/06/09 09:01:07;;;;;;;6.20;4.60;;;27.90;1.00;;;;;;4968976;28;21233;-81
2023/06/09 09:03:34;;;;;;;9.77;5.33;;;28.20;1.00;;;;;;4966679;28;20485;-83
2023/06/09 09:06:02;;;;;;;8.33;7.53;;;28.40;1.00;;;;;;4953272;28;20471;-81
2023/06/09 09:08:29;;;;;;;21.57;6.60;;;28.60;1.00;;;;;;4947815;28;20466;-80
2023/06/09 09:11:01;;;;;;;6.07;4.53;;;28.90;1.00;;;;;;4942397;28;20462;-80
2023/06/09 09:13:29;;;;;;;6.53;4.20;;;29.00;1.00;;;;;;4945982;28;20484;-80
2023/06/09 09:15:59;;;;;;;10.77;5.80;;;29.40;1.00;;;;;;4935901;28;20526;-80
2023/06/09 09:18:32;;;;;;;6.67;5.17;;;29.70;1.00;;;;;;4946850;28;20937;-82
2023/06/09 09:21:01;;;;;;;5.80;4.33;;;29.80;1.00;;;;;;4929162;28;20473;-84
2023/06/09 09:23:38;;;;;;;12.90;5.47;;;29.50;1.00;;;;;;4944690;28;20504;-83
2023/06/09 09:26:08;;;;;;;6.57;5.97;;;29.30;1.00;;;;;;4952597;28;21025;-86
2023/06/09 09:31:20;;;;;;;11.27;7.50;;;29.60;1.00;;;;;;4940252;28;20448;-84
2023/06/09 09:34:03;;;;;;;9.03;6.87;;;29.70;1.00;;;;;;4926545;28;20489;-84
2023/06/09 09:36:33;;;;;;;10.90;5.40;;;29.90;1.00;;;;;;4942443;28;20535;-86
2023/06/09 09:39:09;;;;;;;5.37;4.90;;;30.30;1.00;;;;;;4941033;28;20469;-85
2023/06/09 09:44:51;;;;;;;6.90;6.03;;;32.70;1.00;;;;;;4942445;28;20977;-83
2023/06/09 09:47:44;;;;;;;6.73;5.53;;;34.20;1.00;;;;;;4938720;28;20568;-85
2023/06/09 09:50:25;;;;;;;6.43;5.83;;;35.30;1.00;;;;;;4942782;28;20437;-84
2023/06/09 09:52:52;;;;;;;5.73;5.13;;;36.00;1.00;;;;;;4951313;28;20452;-80
2023/06/09 09:55:25;;;;;;;6.57;6.03;;;36.50;1.00;;;;;;4951481;28;20570;-82
2023/06/09 09:57:57;;;;;;;6.90;5.33;;;36.80;1.00;;;;;;4947706;28;20469;-81
2023/06/09 10:00:32;;;;;;;7.27;5.80;;;37.30;1.00;;;;;;4935151;28;20477;-83
2023/06/09 10:03:02;;;;;;;6.03;5.47;;;37.80;1.00;;;;;;4928816;28;20470;-82
2023/06/09 10:05:39;;;;;;;6.10;5.50;;;38.40;1.00;;;;;;4965879;28;20605;-81
2023/06/09 10:08:10;;;;;;;5.37;4.80;;;39.00;1.00;;;;;;4970512;28;20547;-85
2023/06/09 10:10:39;;;;;;;5.60;5.10;;;38.80;1.00;;;;;;4964370;28;20559;-83
2023/06/09 10:13:07;;;;;;;5.30;4.90;;;38.90;1.00;;;;;;4966095;28;20499;-83
2023/06/09 10:15:38;;;;;;;5.80;5.30;;;39.00;1.00;;;;;;4956325;28;20484;-85
2023/06/09 10:18:10;;;;;;;6.63;4.77;;;39.00;1.00;;;;;;4966370;28;20479;-80
2023/06/09 10:20:48;;;;;;;5.27;4.77;;;39.60;1.00;;;;;;4973783;28;20440;-81
2023/06/09 10:23:16;;;;;;;6.20;5.37;;;39.80;1.00;;;;;;4972833;28;20469;-80
2023/06/09 10:25:47;;;;;;;6.23;5.00;;;40.20;1.00;;;;;;4964344;28;20471;-81
2023/06/09 10:28:16;;;;;;;5.90;5.40;;;40.50;1.00;;;;;;4974713;28;21197;-81
2023/06/09 10:30:48;;;;;;;6.17;5.67;;;40.50;1.00;;;;;;4973166;28;20584;-81
2023/06/09 10:33:20;;;;;;;6.60;4.80;;;40.90;1.00;;;;;;4969887;28;20472;-80
2023/06/09 10:35:59;;;;;;;8.13;5.60;;;40.70;1.00;;;;;;4971667;28;20455;-85
2023/06/09 10:38:29;;;;;;;8.50;5.73;;;40.70;1.00;;;;;;4966543;28;20475;-81
2023/06/09 10:41:15;;;;;;;7.00;6.30;;;40.90;1.00;;;;;;4963541;28;20448;-80
2023/06/09 10:44:02;;;;;;;6.57;5.60;;;40.90;1.00;;;;;;4964042;28;20506;-80
2023/06/09 10:46:40;;;;;;;5.73;4.67;;;40.70;1.00;;;;;;4966356;28;20512;-81
2023/06/09 10:49:11;;;;;;;6.80;5.90;;;41.30;1.00;;;;;;4962879;28;20500;-80
2023/06/09 10:51:40;;;;;;;5.97;5.37;;;41.80;1.00;;;;;;4966656;28;20555;-80
2023/06/09 10:54:24;;;;;;;9.13;5.23;;;42.20;1.00;;;;;;4968327;28;20430;-81
2023/06/09 10:57:00;;;;;;;6.00;5.47;;;41.70;1.00;;;;;;4972148;28;20893;-81
2023/06/09 10:59:54;;;;;;;5.63;5.23;;;42.10;1.00;;;;;;4954129;28;20446;-82
2023/06/09 11:02:29;;;;;;;5.03;4.63;;;42.20;1.00;;;;;;4966738;28;20549;-81
2023/06/09 11:04:57;;;;;;;6.00;5.50;;;41.80;1.00;;;;;;4964962;28;20459;-85
2023/06/09 11:07:33;;;;;;;6.00;5.47;;;42.20;1.00;;;;;;4982504;28;20493;-85
2023/06/09 11:10:28;;;;;;;5.70;5.20;;;42.90;1.00;;;;;;4975895;28;20463;-83
2023/06/09 11:12:55;;;;;;;5.70;5.17;;;43.00;1.00;;;;;;4969757;28;20455;-83
2023/06/09 11:15:23;;;;;;;4.87;4.47;;;43.30;1.00;;;;;;4971164;28;20665;-82
2023/06/09 11:17:52;;;;;;;5.00;4.60;;;43.30;1.00;;;;;;4972088;28;20506;-85
2023/06/09 11:20:33;;;;;;;6.50;5.67;;;43.50;1.00;;;;;;4971188;28;20460;-84
2023/06/09 11:23:06;;;;;;;7.30;5.73;;;43.00;1.00;;;;;;4960883;28;20475;-85
2023/06/09 11:25:37;;;;;;;7.57;6.43;;;42.60;1.00;;;;;;4980149;28;20435;-84
2023/06/09 11:28:24;;;;;;;4.67;4.37;;;42.10;1.00;;;;;;4972935;28;20564;-84
2023/06/09 11:31:02;;;;;;;5.70;5.00;;;42.10;1.00;;;;;;4972481;28;20447;-84
2023/06/09 11:33:45;;;;;;;7.00;4.43;;;42.50;1.00;;;;;;4966853;28;20506;-82
2023/06/09 11:36:19;;;;;;;6.03;5.63;;;43.00;1.00;;;;;;4968062;28;20573;-84
2023/06/09 11:39:03;;;;;;;5.07;4.70;;;43.50;1.00;;;;;;4965606;28;20475;-86
2023/06/09 11:41:32;;;;;;;7.57;5.63;;;44.30;1.00;;;;;;4963699;28;20464;-82
2023/06/09 11:44:00;;;;;;;4.93;4.53;;;44.60;1.00;;;;;;4966675;28;20551;-84
2023/06/09 11:46:28;;;;;;;4.70;4.30;;;45.10;1.00;;;;;;4967648;28;20421;-82
2023/06/09 11:49:07;;;;;;;5.63;5.13;;;45.10;1.00;;;;;;4971143;28;20476;-82
2023/06/09 11:51:53;;;;;;;5.27;4.77;;;45.00;1.00;;;;;;4967817;28;20473;-83
2023/06/09 11:54:22;;;;;;;5.57;5.07;;;44.80;1.00;;;;;;4969085;28;21318;-82
2023/06/09 11:56:50;;;;;;;4.93;4.63;;;44.70;1.00;;;;;;4966876;28;20504;-83
2023/06/09 11:59:21;;;;;;;5.80;5.30;;;44.40;1.00;;;;;;4969265;28;20553;-81
2023/06/09 12:01:49;;;;;;;5.93;5.33;;;44.10;1.00;;;;;;4970554;28;20475;-81
2023/06/09 12:04:17;;;;;;;4.90;4.43;;;43.20;1.00;;;;;;4965211;28;20924;-81
2023/06/09 12:06:50;;;;;;;5.20;4.73;;;43.30;1.00;;;;;;4966408;28;20562;-81
2023/06/09 12:09:24;;;;;;;5.00;4.60;;;43.70;1.00;;;;;;4968198;28;20562;-82
2023/06/09 12:11:54;;;;;;;5.70;5.20;;;44.00;1.00;;;;;;4966079;28;20444;-82
2023/06/09 12:14:22;;;;;;;5.73;5.33;;;43.30;1.00;;;;;;4957784;28;20463;-82
2023/06/09 12:16:51;;;;;;;5.13;4.83;;;43.50;1.00;;;;;;4968004;28;20940;-82
2023/06/09 12:19:19;;;;;;;5.60;5.20;;;43.60;1.00;;;;;;4956480;28;20566;-81
2023/06/09 12:21:52;;;;;;;5.90;5.40;;;43.80;1.00;;;;;;4968225;28;20547;-82
2023/06/09 12:24:20;;;;;;;4.87;4.57;;;44.00;1.00;;;;;;4969782;28;20535;-81
2023/06/09 12:26:55;;;;;;;5.80;5.20;;;43.70;1.00;;;;;;4965552;28;20500;-82
2023/06/09 12:29:28;;;;;;;5.70;5.17;;;43.60;1.00;;;;;;4970602;28;20464;-82
2023/06/09 12:31:56;;;;;;;5.20;4.80;;;43.60;1.00;;;;;;4959295;28;20540;-82
2023/06/09 12:34:25;;;;;;;12.70;11.73;;;43.90;1.00;;;;;;4967145;28;20460;-81
2023/06/09 12:36:52;;;;;;;6.40;5.90;;;43.90;1.00;;;;;;4967108;28;20449;-81
2023/06/09 12:39:20;;;;;;;7.30;6.80;;;44.10;1.00;;;;;;4954395;28;20533;-82
2023/06/09 12:41:49;;;;;;;8.70;7.90;;;44.70;1.00;;;;;;4963814;28;20461;-83
2023/06/09 12:44:24;;;;;;;10.07;9.27;;;45.00;1.00;;;;;;4968002;28;20504;-82
2023/06/09 12:46:56;;;;;;;7.47;6.87;;;45.20;1.00;;;;;;4965784;28;20447;-81
2023/06/09 12:49:31;;;;;;;6.03;5.53;;;45.70;1.00;;;;;;4966656;28;20503;-81
2023/06/09 12:51:59;;;;;;;5.73;5.30;;;46.10;1.00;;;;;;4950542;28;20540;-82
2023/06/09 12:54:27;;;;;;;5.80;5.40;;;46.10;1.00;;;;;;4966250;28;20503;-83
2023/06/09 12:57:01;;;;;;;5.50;5.07;;;46.10;1.00;;;;;;4965690;28;20547;-82
2023/06/09 12:59:28;;;;;;;5.40;5.00;;;45.60;1.00;;;;;;4966151;28;20476;-84
2023/06/09 13:01:56;;;;;;;6.10;5.50;;;45.20;1.00;;;;;;4955199;28;20555;-81
2023/06/09 13:04:26;;;;;;;6.57;6.07;;;44.70;1.00;;;;;;4963359;28;20659;-81
2023/06/09 13:06:55;;;;;;;6.20;5.60;;;43.70;1.00;;;;;;4965209;28;20468;-80
2023/06/09 13:09:23;;;;;;;5.63;4.90;;;43.30;1.00;;;;;;4962430;28;20555;-80
2023/06/09 13:11:53;;;;;;;5.40;5.00;;;43.70;1.00;;;;;;4962614;28;20460;-81
2023/06/09 13:14:22;;;;;;;5.33;4.93;;;44.20;1.00;;;;;;4965902;28;21347;-80
2023/06/09 13:16:52;;;;;;;6.33;4.60;;;44.50;1.00;;;;;;4937319;28;20482;-81
2023/06/09 13:19:20;;;;;;;6.43;5.93;;;44.50;1.00;;;;;;4950571;28;20493;-79
2023/06/09 13:21:47;;;;;;;5.53;5.13;;;44.80;1.00;;;;;;4962719;28;20574;-82